sensor_id;sensor_type;location;lat;lon;timestamp;temperature;humidity
70534;SHT31;58088;51.186;17.130;2023-02-01T00:00:49;4.44;76.89
70534;SHT31;58088;51.186;17.130;2023-02-01T00:03:15;4.42;76.87
70534;SHT31;58088;51.186;17.130;2023-02-01T00:05:44;4.40;76.81
70534;SHT31;58088;51.186;17.130;2023-02-01T00:08:10;4.41;76.76
70534;SHT31;58088;51.186;17.130;2023-02-01T00:10:36;4.40;76.65
70534;SHT31;58088;51.186;17.130;2023-02-01T00:13:02;4.38;76.57
70534;SHT31;58088;51.186;17.130;2023-02-01T00:15:28;4.36;76.43
70534;SHT31;58088;51.186;17.130;2023-02-01T00:17:55;4.34;76.38
70534;SHT31;58088;51.186;17.130;2023-02-01T00:20:21;4.34;76.25
70534;SHT31;58088;51.186;17.130;2023-02-01T00:22:47;4.32;76.19
70534;SHT31;58088;51.186;17.130;2023-02-01T00:25:13;4.29;76.10
70534;SHT31;58088;51.186;17.130;2023-02-01T00:27:40;4.27;76.03
70534;SHT31;58088;51.186;17.130;2023-02-01T00:30:06;4.25;76.00
70534;SHT31;58088;51.186;17.130;2023-02-01T00:32:34;4.23;76.02
70534;SHT31;58088;51.186;17.130;2023-02-01T00:35:01;4.21;76.08
70534;SHT31;58088;51.186;17.130;2023-02-01T00:37:27;4.22;76.17
70534;SHT31;58088;51.186;17.130;2023-02-01T00:39:53;4.26;76.21
70534;SHT31;58088;51.186;17.130;2023-02-01T00:42:21;4.29;76.23
70534;SHT31;58088;51.186;17.130;2023-02-01T00:44:47;4.30;76.30
70534;SHT31;58088;51.186;17.130;2023-02-01T00:47:13;4.32;76.33
70534;SHT31;58088;51.186;17.130;2023-02-01T00:49:40;4.34;76.42
70534;SHT31;58088;51.186;17.130;2023-02-01T00:52:06;4.35;76.47
70534;SHT31;58088;51.186;17.130;2023-02-01T00:54:32;4.37;76.58
70534;SHT31;58088;51.186;17.130;2023-02-01T00:56:58;4.43;76.60
70534;SHT31;58088;51.186;17.130;2023-02-01T00:59:25;4.44;76.67
70534;SHT31;58088;51.186;17.130;2023-02-01T01:01:51;4.48;76.69
70534;SHT31;58088;51.186;17.130;2023-02-01T01:04:17;4.51;76.72
70534;SHT31;58088;51.186;17.130;2023-02-01T01:06:44;4.53;76.79
70534;SHT31;58088;51.186;17.130;2023-02-01T01:09:10;4.55;76.90
70534;SHT31;58088;51.186;17.130;2023-02-01T01:11:36;4.58;76.98
70534;SHT31;58088;51.186;17.130;2023-02-01T01:14:05;4.61;76.98
70534;SHT31;58088;51.186;17.130;2023-02-01T01:16:34;4.62;76.93
70534;SHT31;58088;51.186;17.130;2023-02-01T01:19:01;4.63;76.93
70534;SHT31;58088;51.186;17.130;2023-02-01T01:21:28;4.62;76.90
70534;SHT31;58088;51.186;17.130;2023-02-01T01:23:55;4.61;76.90
70534;SHT31;58088;51.186;17.130;2023-02-01T01:26:24;4.60;76.90
70534;SHT31;58088;51.186;17.130;2023-02-01T01:28:54;4.56;76.91
70534;SHT31;58088;51.186;17.130;2023-02-01T01:31:23;4.55;77.04
70534;SHT31;58088;51.186;17.130;2023-02-01T01:33:51;4.54;77.11
70534;SHT31;58088;51.186;17.130;2023-02-01T01:36:20;4.55;77.20
70534;SHT31;58088;51.186;17.130;2023-02-01T01:38:47;4.56;77.20
70534;SHT31;58088;51.186;17.130;2023-02-01T01:41:21;4.60;77.04
70534;SHT31;58088;51.186;17.130;2023-02-01T01:43:58;4.60;76.89
70534;SHT31;58088;51.186;17.130;2023-02-01T01:46:32;4.59;76.75
70534;SHT31;58088;51.186;17.130;2023-02-01T01:51:38;4.53;76.51
70534;SHT31;58088;51.186;17.130;2023-02-01T01:54:14;4.51;76.51
70534;SHT31;58088;51.186;17.130;2023-02-01T01:56:59;4.52;76.45
70534;SHT31;58088;51.186;17.130;2023-02-01T01:59:32;4.53;76.33
70534;SHT31;58088;51.186;17.130;2023-02-01T02:02:20;4.52;76.32
70534;SHT31;58088;51.186;17.130;2023-02-01T02:05:05;4.50;76.42
70534;SHT31;58088;51.186;17.130;2023-02-01T02:07:35;4.48;76.69
70534;SHT31;58088;51.186;17.130;2023-02-01T02:10:07;4.50;76.81
70534;SHT31;58088;51.186;17.130;2023-02-01T02:12:40;4.49;76.94
70534;SHT31;58088;51.186;17.130;2023-02-01T02:15:10;4.49;77.09
70534;SHT31;58088;51.186;17.130;2023-02-01T02:17:44;4.49;77.10
70534;SHT31;58088;51.186;17.130;2023-02-01T02:39:03;4.66;77.10
70534;SHT31;58088;51.186;17.130;2023-02-01T02:41:50;4.68;77.11
70534;SHT31;58088;51.186;17.130;2023-02-01T02:47:51;4.75;77.05
70534;SHT31;58088;51.186;17.130;2023-02-01T02:50:49;4.75;77.00
70534;SHT31;58088;51.186;17.130;2023-02-01T02:56:49;4.80;76.92
70534;SHT31;58088;51.186;17.130;2023-02-01T02:59:36;4.86;76.74
70534;SHT31;58088;51.186;17.130;2023-02-01T03:02:25;4.91;76.60
70534;SHT31;58088;51.186;17.130;2023-02-01T03:05:12;4.96;76.44
70534;SHT31;58088;51.186;17.130;2023-02-01T03:07:46;5.00;76.33
70534;SHT31;58088;51.186;17.130;2023-02-01T03:13:33;5.08;75.89
70534;SHT31;58088;51.186;17.130;2023-02-01T03:16:51;5.12;75.72
70534;SHT31;58088;51.186;17.130;2023-02-01T03:19:21;5.16;75.43
70534;SHT31;58088;51.186;17.130;2023-02-01T03:21:53;5.20;75.20
70534;SHT31;58088;51.186;17.130;2023-02-01T03:24:32;5.26;75.07
70534;SHT31;58088;51.186;17.130;2023-02-01T03:27:23;5.29;74.89
70534;SHT31;58088;51.186;17.130;2023-02-01T03:32:32;5.31;74.21
70534;SHT31;58088;51.186;17.130;2023-02-01T03:35:25;5.32;73.98
70534;SHT31;58088;51.186;17.130;2023-02-01T03:38:04;5.35;73.84
70534;SHT31;58088;51.186;17.130;2023-02-01T03:41:40;5.40;73.78
70534;SHT31;58088;51.186;17.130;2023-02-01T03:43:56;5.38;73.67
70534;SHT31;58088;51.186;17.130;2023-02-01T03:46:37;5.36;73.43
70534;SHT31;58088;51.186;17.130;2023-02-01T03:49:13;5.36;73.40
70534;SHT31;58088;51.186;17.130;2023-02-01T03:51:49;5.35;73.39
70534;SHT31;58088;51.186;17.130;2023-02-01T03:54:17;5.35;73.40
70534;SHT31;58088;51.186;17.130;2023-02-01T03:56:46;5.34;73.27
70534;SHT31;58088;51.186;17.130;2023-02-01T03:59:14;5.35;73.12
70534;SHT31;58088;51.186;17.130;2023-02-01T04:01:41;5.36;73.05
70534;SHT31;58088;51.186;17.130;2023-02-01T04:04:08;5.35;72.93
70534;SHT31;58088;51.186;17.130;2023-02-01T04:06:35;5.33;72.91
70534;SHT31;58088;51.186;17.130;2023-02-01T04:09:02;5.31;72.80
70534;SHT31;58088;51.186;17.130;2023-02-01T04:11:28;5.29;72.76
70534;SHT31;58088;51.186;17.130;2023-02-01T04:13:54;5.24;72.73
70534;SHT31;58088;51.186;17.130;2023-02-01T04:16:20;5.23;72.69
70534;SHT31;58088;51.186;17.130;2023-02-01T04:18:46;5.20;72.70
70534;SHT31;58088;51.186;17.130;2023-02-01T04:21:13;5.21;72.62
70534;SHT31;58088;51.186;17.130;2023-02-01T04:23:40;5.19;72.60
70534;SHT31;58088;51.186;17.130;2023-02-01T04:26:06;5.19;72.55
70534;SHT31;58088;51.186;17.130;2023-02-01T04:28:32;5.18;72.50
70534;SHT31;58088;51.186;17.130;2023-02-01T04:30:58;5.16;72.49
70534;SHT31;58088;51.186;17.130;2023-02-01T04:33:25;5.14;72.41
70534;SHT31;58088;51.186;17.130;2023-02-01T04:35:51;5.13;72.40
70534;SHT31;58088;51.186;17.130;2023-02-01T04:38:17;5.12;72.39
70534;SHT31;58088;51.186;17.130;2023-02-01T04:40:46;5.09;72.34
70534;SHT31;58088;51.186;17.130;2023-02-01T04:43:14;5.07;72.32
70534;SHT31;58088;51.186;17.130;2023-02-01T04:45:41;5.10;72.31
70534;SHT31;58088;51.186;17.130;2023-02-01T04:48:07;5.14;72.23
70534;SHT31;58088;51.186;17.130;2023-02-01T04:50:34;5.14;72.17
70534;SHT31;58088;51.186;17.130;2023-02-01T04:53:01;5.17;72.15
70534;SHT31;58088;51.186;17.130;2023-02-01T04:55:27;5.19;72.10
70534;SHT31;58088;51.186;17.130;2023-02-01T04:57:54;5.22;72.09
70534;SHT31;58088;51.186;17.130;2023-02-01T05:00:21;5.26;72.01
70534;SHT31;58088;51.186;17.130;2023-02-01T05:02:47;5.30;71.96
70534;SHT31;58088;51.186;17.130;2023-02-01T05:05:13;5.33;71.92
70534;SHT31;58088;51.186;17.130;2023-02-01T05:07:39;5.36;71.84
70534;SHT31;58088;51.186;17.130;2023-02-01T05:10:06;5.39;71.76
70534;SHT31;58088;51.186;17.130;2023-02-01T05:12:33;5.44;71.72
70534;SHT31;58088;51.186;17.130;2023-02-01T05:15:17;5.47;71.65
70534;SHT31;58088;51.186;17.130;2023-02-01T05:17:45;5.48;71.50
70534;SHT31;58088;51.186;17.130;2023-02-01T05:20:11;5.51;71.48
70534;SHT31;58088;51.186;17.130;2023-02-01T05:22:37;5.56;71.39
70534;SHT31;58088;51.186;17.130;2023-02-01T05:25:04;5.58;71.36
70534;SHT31;58088;51.186;17.130;2023-02-01T05:27:30;5.59;71.15
70534;SHT31;58088;51.186;17.130;2023-02-01T05:29:57;5.62;71.03
70534;SHT31;58088;51.186;17.130;2023-02-01T05:32:23;5.66;70.99
70534;SHT31;58088;51.186;17.130;2023-02-01T05:34:50;5.69;70.84
70534;SHT31;58088;51.186;17.130;2023-02-01T05:37:16;5.71;70.76
70534;SHT31;58088;51.186;17.130;2023-02-01T05:39:42;5.71;70.57
70534;SHT31;58088;51.186;17.130;2023-02-01T05:42:09;5.72;70.47
70534;SHT31;58088;51.186;17.130;2023-02-01T05:44:35;5.67;70.33
70534;SHT31;58088;51.186;17.130;2023-02-01T05:47:01;5.67;70.20
70534;SHT31;58088;51.186;17.130;2023-02-01T05:49:28;5.66;70.13
70534;SHT31;58088;51.186;17.130;2023-02-01T05:51:54;5.64;70.11
70534;SHT31;58088;51.186;17.130;2023-02-01T05:54:20;5.65;70.05
70534;SHT31;58088;51.186;17.130;2023-02-01T05:56:46;5.64;70.01
70534;SHT31;58088;51.186;17.130;2023-02-01T05:59:12;5.63;69.93
70534;SHT31;58088;51.186;17.130;2023-02-01T06:01:39;5.62;69.81
70534;SHT31;58088;51.186;17.130;2023-02-01T06:04:05;5.65;69.77
70534;SHT31;58088;51.186;17.130;2023-02-01T06:06:31;5.67;69.77
70534;SHT31;58088;51.186;17.130;2023-02-01T06:08:57;5.66;69.79
70534;SHT31;58088;51.186;17.130;2023-02-01T06:11:24;5.65;69.78
70534;SHT31;58088;51.186;17.130;2023-02-01T06:13:50;5.65;69.80
70534;SHT31;58088;51.186;17.130;2023-02-01T06:16:16;5.67;69.76
70534;SHT31;58088;51.186;17.130;2023-02-01T06:18:42;5.70;69.71
70534;SHT31;58088;51.186;17.130;2023-02-01T06:21:08;5.73;69.73
70534;SHT31;58088;51.186;17.130;2023-02-01T06:23:35;5.77;69.70
70534;SHT31;58088;51.186;17.130;2023-02-01T06:26:03;5.80;69.70
70534;SHT31;58088;51.186;17.130;2023-02-01T06:28:33;5.82;69.64
70534;SHT31;58088;51.186;17.130;2023-02-01T06:31:05;5.85;69.57
70534;SHT31;58088;51.186;17.130;2023-02-01T06:33:33;5.88;69.53
70534;SHT31;58088;51.186;17.130;2023-02-01T06:36:00;5.89;69.48
70534;SHT31;58088;51.186;17.130;2023-02-01T06:38:30;5.91;69.36
70534;SHT31;58088;51.186;17.130;2023-02-01T06:40:57;5.96;69.35
70534;SHT31;58088;51.186;17.130;2023-02-01T06:43:25;5.96;69.20
70534;SHT31;58088;51.186;17.130;2023-02-01T06:45:52;6.02;69.23
70534;SHT31;58088;51.186;17.130;2023-02-01T06:48:29;6.06;69.27
70534;SHT31;58088;51.186;17.130;2023-02-01T06:50:56;6.07;69.20
70534;SHT31;58088;51.186;17.130;2023-02-01T06:53:22;6.08;69.20
70534;SHT31;58088;51.186;17.130;2023-02-01T06:56:08;6.09;69.13
70534;SHT31;58088;51.186;17.130;2023-02-01T06:58:34;6.09;69.02
70534;SHT31;58088;51.186;17.130;2023-02-01T07:01:05;6.11;68.96
70534;SHT31;58088;51.186;17.130;2023-02-01T07:03:33;6.13;68.90
70534;SHT31;58088;51.186;17.130;2023-02-01T07:05:59;6.18;68.88
70534;SHT31;58088;51.186;17.130;2023-02-01T07:08:27;6.19;68.79
70534;SHT31;58088;51.186;17.130;2023-02-01T07:10:54;6.20;68.80
70534;SHT31;58088;51.186;17.130;2023-02-01T07:13:20;6.21;68.79
70534;SHT31;58088;51.186;17.130;2023-02-01T07:15:46;6.22;68.73
70534;SHT31;58088;51.186;17.130;2023-02-01T07:18:16;6.23;68.70
70534;SHT31;58088;51.186;17.130;2023-02-01T07:20:42;6.26;68.69
70534;SHT31;58088;51.186;17.130;2023-02-01T07:23:11;6.28;68.69
70534;SHT31;58088;51.186;17.130;2023-02-01T07:25:37;6.30;68.67
70534;SHT31;58088;51.186;17.130;2023-02-01T07:28:03;6.28;68.59
70534;SHT31;58088;51.186;17.130;2023-02-01T07:30:30;6.30;68.57
70534;SHT31;58088;51.186;17.130;2023-02-01T07:32:56;6.30;68.51
70534;SHT31;58088;51.186;17.130;2023-02-01T07:35:27;6.29;68.40
70534;SHT31;58088;51.186;17.130;2023-02-01T07:37:56;6.31;68.41
70534;SHT31;58088;51.186;17.130;2023-02-01T07:40:23;6.35;68.44
70534;SHT31;58088;51.186;17.130;2023-02-01T07:42:54;6.33;68.33
70534;SHT31;58088;51.186;17.130;2023-02-01T07:45:21;6.32;68.40
70534;SHT31;58088;51.186;17.130;2023-02-01T07:47:48;6.35;68.36
70534;SHT31;58088;51.186;17.130;2023-02-01T07:50:17;6.36;68.26
70534;SHT31;58088;51.186;17.130;2023-02-01T07:52:43;6.36;68.33
70534;SHT31;58088;51.186;17.130;2023-02-01T07:55:09;6.37;68.38
70534;SHT31;58088;51.186;17.130;2023-02-01T07:57:36;6.38;68.34
70534;SHT31;58088;51.186;17.130;2023-02-01T08:00:03;6.41;68.39
70534;SHT31;58088;51.186;17.130;2023-02-01T08:02:49;6.43;68.52
70534;SHT31;58088;51.186;17.130;2023-02-01T08:05:16;6.43;68.60
70534;SHT31;58088;51.186;17.130;2023-02-01T08:07:42;6.45;68.72
70534;SHT31;58088;51.186;17.130;2023-02-01T08:10:09;6.43;68.77
70534;SHT31;58088;51.186;17.130;2023-02-01T08:12:37;6.42;68.84
70534;SHT31;58088;51.186;17.130;2023-02-01T08:15:04;6.40;68.89
70534;SHT31;58088;51.186;17.130;2023-02-01T08:17:31;6.43;68.97
70534;SHT31;58088;51.186;17.130;2023-02-01T08:19:59;6.47;69.08
70534;SHT31;58088;51.186;17.130;2023-02-01T08:22:25;6.52;69.18
70534;SHT31;58088;51.186;17.130;2023-02-01T08:24:52;6.55;69.28
70534;SHT31;58088;51.186;17.130;2023-02-01T08:27:27;6.58;69.32
70534;SHT31;58088;51.186;17.130;2023-02-01T08:29:53;6.60;69.29
70534;SHT31;58088;51.186;17.130;2023-02-01T08:32:19;6.59;69.31
70534;SHT31;58088;51.186;17.130;2023-02-01T08:34:46;6.60;69.42
70534;SHT31;58088;51.186;17.130;2023-02-01T08:37:12;6.61;69.50
70534;SHT31;58088;51.186;17.130;2023-02-01T08:39:38;6.63;69.58
70534;SHT31;58088;51.186;17.130;2023-02-01T08:42:04;6.70;69.60
70534;SHT31;58088;51.186;17.130;2023-02-01T08:44:53;6.68;69.54
70534;SHT31;58088;51.186;17.130;2023-02-01T08:47:19;6.68;69.52
70534;SHT31;58088;51.186;17.130;2023-02-01T08:49:46;6.66;69.60
70534;SHT31;58088;51.186;17.130;2023-02-01T08:52:13;6.67;69.67
70534;SHT31;58088;51.186;17.130;2023-02-01T08:54:40;6.68;69.62
70534;SHT31;58088;51.186;17.130;2023-02-01T08:57:07;6.64;69.69
70534;SHT31;58088;51.186;17.130;2023-02-01T08:59:35;6.65;69.74
70534;SHT31;58088;51.186;17.130;2023-02-01T09:02:01;6.64;69.65
70534;SHT31;58088;51.186;17.130;2023-02-01T09:04:28;6.65;69.62
70534;SHT31;58088;51.186;17.130;2023-02-01T09:06:54;6.64;69.73
70534;SHT31;58088;51.186;17.130;2023-02-01T09:09:22;6.68;69.78
70534;SHT31;58088;51.186;17.130;2023-02-01T09:11:50;6.69;69.85
70534;SHT31;58088;51.186;17.130;2023-02-01T09:14:16;6.66;69.99
70534;SHT31;58088;51.186;17.130;2023-02-01T09:16:43;6.65;70.28
70534;SHT31;58088;51.186;17.130;2023-02-01T09:19:09;6.61;70.51
70534;SHT31;58088;51.186;17.130;2023-02-01T09:21:36;6.62;70.82
70534;SHT31;58088;51.186;17.130;2023-02-01T09:24:02;6.58;71.01
70534;SHT31;58088;51.186;17.130;2023-02-01T09:26:29;6.57;71.31
70534;SHT31;58088;51.186;17.130;2023-02-01T09:28:56;6.58;71.47
70534;SHT31;58088;51.186;17.130;2023-02-01T09:31:22;6.61;71.58
70534;SHT31;58088;51.186;17.130;2023-02-01T09:33:48;6.62;71.74
70534;SHT31;58088;51.186;17.130;2023-02-01T09:36:15;6.64;71.73
70534;SHT31;58088;51.186;17.130;2023-02-01T09:38:41;6.67;71.61
70534;SHT31;58088;51.186;17.130;2023-02-01T09:41:10;6.68;71.59
70534;SHT31;58088;51.186;17.130;2023-02-01T09:46:45;6.82;71.39
70534;SHT31;58088;51.186;17.130;2023-02-01T09:49:14;6.87;71.26
70534;SHT31;58088;51.186;17.130;2023-02-01T09:51:48;6.93;71.21
70534;SHT31;58088;51.186;17.130;2023-02-01T09:54:19;6.94;71.03
70534;SHT31;58088;51.186;17.130;2023-02-01T09:56:55;6.95;70.88
70534;SHT31;58088;51.186;17.130;2023-02-01T10:02:38;6.96;70.55
70534;SHT31;58088;51.186;17.130;2023-02-01T10:05:05;7.00;70.51
70534;SHT31;58088;51.186;17.130;2023-02-01T10:07:57;6.99;70.25
70534;SHT31;58088;51.186;17.130;2023-02-01T10:10:34;7.01;70.12
70534;SHT31;58088;51.186;17.130;2023-02-01T10:16:13;7.08;70.22
70534;SHT31;58088;51.186;17.130;2023-02-01T10:19:22;7.16;70.27
70534;SHT31;58088;51.186;17.130;2023-02-01T10:25:14;7.19;70.29
70534;SHT31;58088;51.186;17.130;2023-02-01T10:27:52;7.22;70.38
70534;SHT31;58088;51.186;17.130;2023-02-01T10:30:21;7.24;70.15
70534;SHT31;58088;51.186;17.130;2023-02-01T10:33:00;7.16;69.98
70534;SHT31;58088;51.186;17.130;2023-02-01T10:35:58;7.10;69.96
70534;SHT31;58088;51.186;17.130;2023-02-01T10:39:10;7.05;69.99
70534;SHT31;58088;51.186;17.130;2023-02-01T10:41:40;7.01;70.08
70534;SHT31;58088;51.186;17.130;2023-02-01T10:44:12;6.94;70.07
70534;SHT31;58088;51.186;17.130;2023-02-01T10:46:42;6.94;70.05
70534;SHT31;58088;51.186;17.130;2023-02-01T10:49:12;6.95;70.11
70534;SHT31;58088;51.186;17.130;2023-02-01T10:51:47;6.95;70.07
70534;SHT31;58088;51.186;17.130;2023-02-01T10:54:40;6.92;70.04
70534;SHT31;58088;51.186;17.130;2023-02-01T10:57:08;6.91;70.03
70534;SHT31;58088;51.186;17.130;2023-02-01T10:59:55;6.94;70.05
70534;SHT31;58088;51.186;17.130;2023-02-01T11:05:01;6.94;70.02
70534;SHT31;58088;51.186;17.130;2023-02-01T11:07:38;6.91;70.00
70534;SHT31;58088;51.186;17.130;2023-02-01T11:10:37;6.88;70.15
70534;SHT31;58088;51.186;17.130;2023-02-01T11:13:11;6.84;70.58
70534;SHT31;58088;51.186;17.130;2023-02-01T11:15:45;6.78;71.03
70534;SHT31;58088;51.186;17.130;2023-02-01T11:18:20;6.73;71.38
70534;SHT31;58088;51.186;17.130;2023-02-01T11:20:55;6.73;71.65
70534;SHT31;58088;51.186;17.130;2023-02-01T11:23:22;6.74;71.83
70534;SHT31;58088;51.186;17.130;2023-02-01T11:25:55;6.74;71.99
70534;SHT31;58088;51.186;17.130;2023-02-01T11:28:26;6.72;72.06
70534;SHT31;58088;51.186;17.130;2023-02-01T11:31:01;6.70;72.25
70534;SHT31;58088;51.186;17.130;2023-02-01T11:33:33;6.68;72.44
70534;SHT31;58088;51.186;17.130;2023-02-01T11:36:10;6.65;72.63
70534;SHT31;58088;51.186;17.130;2023-02-01T11:38:46;6.60;72.84
70534;SHT31;58088;51.186;17.130;2023-02-01T11:41:55;6.55;73.23
70534;SHT31;58088;51.186;17.130;2023-02-01T11:44:46;6.55;73.37
70534;SHT31;58088;51.186;17.130;2023-02-01T11:50:12;6.61;73.32
70534;SHT31;58088;51.186;17.130;2023-02-01T12:04:13;6.58;73.58
70534;SHT31;58088;51.186;17.130;2023-02-01T12:07:11;6.50;73.90
70534;SHT31;58088;51.186;17.130;2023-02-01T12:13:06;6.41;74.43
70534;SHT31;58088;51.186;17.130;2023-02-01T12:32:17;6.46;75.61
70534;SHT31;58088;51.186;17.130;2023-02-01T12:35:12;6.52;75.62
70534;SHT31;58088;51.186;17.130;2023-02-01T12:47:13;6.46;76.00
70534;SHT31;58088;51.186;17.130;2023-02-01T12:50:14;6.45;76.07
70534;SHT31;58088;51.186;17.130;2023-02-01T12:52:51;6.43;76.08
70534;SHT31;58088;51.186;17.130;2023-02-01T12:55:24;6.40;76.10
70534;SHT31;58088;51.186;17.130;2023-02-01T13:01:02;6.33;76.24
70534;SHT31;58088;51.186;17.130;2023-02-01T13:03:59;6.30;76.25
70534;SHT31;58088;51.186;17.130;2023-02-01T13:09:42;6.29;76.42
70534;SHT31;58088;51.186;17.130;2023-02-01T13:12:23;6.24;76.58
70534;SHT31;58088;51.186;17.130;2023-02-01T13:15:13;6.24;76.65
70534;SHT31;58088;51.186;17.130;2023-02-01T13:17:51;6.29;76.77
70534;SHT31;58088;51.186;17.130;2023-02-01T13:20:30;6.33;76.81
70534;SHT31;58088;51.186;17.130;2023-02-01T13:23:13;6.36;76.84
70534;SHT31;58088;51.186;17.130;2023-02-01T13:25:53;6.34;76.82
70534;SHT31;58088;51.186;17.130;2023-02-01T13:31:28;6.34;76.70
70534;SHT31;58088;51.186;17.130;2023-02-01T13:43:12;6.45;76.77
70534;SHT31;58088;51.186;17.130;2023-02-01T13:45:47;6.49;76.68
70534;SHT31;58088;51.186;17.130;2023-02-01T13:48:21;6.49;76.53
70534;SHT31;58088;51.186;17.130;2023-02-01T13:50:56;6.47;76.42
70534;SHT31;58088;51.186;17.130;2023-02-01T13:53:26;6.47;76.40
70534;SHT31;58088;51.186;17.130;2023-02-01T13:56:01;6.48;76.32
70534;SHT31;58088;51.186;17.130;2023-02-01T13:58:39;6.47;76.29
70534;SHT31;58088;51.186;17.130;2023-02-01T14:03:48;6.45;76.23
70534;SHT31;58088;51.186;17.130;2023-02-01T14:15:41;6.66;76.42
70534;SHT31;58088;51.186;17.130;2023-02-01T14:18:02;6.69;76.12
70534;SHT31;58088;51.186;17.130;2023-02-01T14:21:15;6.73;75.87
70534;SHT31;58088;51.186;17.130;2023-02-01T14:26:46;6.74;75.29
70534;SHT31;58088;51.186;17.130;2023-02-01T14:32:15;6.62;74.99
70534;SHT31;58088;51.186;17.130;2023-02-01T14:34:54;6.53;75.18
70534;SHT31;58088;51.186;17.130;2023-02-01T14:37:30;6.46;75.51
70534;SHT31;58088;51.186;17.130;2023-02-01T14:40:15;6.37;75.85
70534;SHT31;58088;51.186;17.130;2023-02-01T14:42:51;6.30;76.14
70534;SHT31;58088;51.186;17.130;2023-02-01T14:50:40;6.35;76.43
70534;SHT31;58088;51.186;17.130;2023-02-01T15:00:58;6.30;76.32
70534;SHT31;58088;51.186;17.130;2023-02-01T15:03:36;6.25;76.38
70534;SHT31;58088;51.186;17.130;2023-02-01T15:06:29;6.21;76.42
70534;SHT31;58088;51.186;17.130;2023-02-01T15:14:40;6.20;76.31
70534;SHT31;58088;51.186;17.130;2023-02-01T15:19:57;6.22;76.20
70534;SHT31;58088;51.186;17.130;2023-02-01T15:22:28;6.22;75.99
70534;SHT31;58088;51.186;17.130;2023-02-01T15:24:57;6.19;75.83
70534;SHT31;58088;51.186;17.130;2023-02-01T15:27:26;6.16;75.73
70534;SHT31;58088;51.186;17.130;2023-02-01T15:29:54;6.16;75.72
70534;SHT31;58088;51.186;17.130;2023-02-01T15:32:30;6.18;75.71
70534;SHT31;58088;51.186;17.130;2023-02-01T15:35:01;6.20;75.67
70534;SHT31;58088;51.186;17.130;2023-02-01T15:37:28;6.20;75.61
70534;SHT31;58088;51.186;17.130;2023-02-01T15:42:35;6.17;75.44
70534;SHT31;58088;51.186;17.130;2023-02-01T15:45:19;6.18;75.40
70534;SHT31;58088;51.186;17.130;2023-02-01T15:47:49;6.17;75.26
70534;SHT31;58088;51.186;17.130;2023-02-01T15:50:19;6.18;75.16
70534;SHT31;58088;51.186;17.130;2023-02-01T15:52:47;6.20;75.08
70534;SHT31;58088;51.186;17.130;2023-02-01T15:55:31;6.20;75.03
70534;SHT31;58088;51.186;17.130;2023-02-01T15:58:08;6.19;74.89
70534;SHT31;58088;51.186;17.130;2023-02-01T16:00:45;6.18;74.75
70534;SHT31;58088;51.186;17.130;2023-02-01T16:03:48;6.16;74.56
70534;SHT31;58088;51.186;17.130;2023-02-01T16:06:11;6.16;74.36
70534;SHT31;58088;51.186;17.130;2023-02-01T16:08:59;6.16;74.24
70534;SHT31;58088;51.186;17.130;2023-02-01T16:11:42;6.16;74.18
70534;SHT31;58088;51.186;17.130;2023-02-01T16:14:21;6.16;74.10
70534;SHT31;58088;51.186;17.130;2023-02-01T16:16:49;6.13;74.01
70534;SHT31;58088;51.186;17.130;2023-02-01T16:19:16;6.10;74.00
70534;SHT31;58088;51.186;17.130;2023-02-01T16:21:42;6.10;74.00
70534;SHT31;58088;51.186;17.130;2023-02-01T16:24:09;6.07;73.98
70534;SHT31;58088;51.186;17.130;2023-02-01T16:26:35;6.04;74.00
70534;SHT31;58088;51.186;17.130;2023-02-01T16:29:03;6.02;74.00
70534;SHT31;58088;51.186;17.130;2023-02-01T16:31:38;6.01;74.00
70534;SHT31;58088;51.186;17.130;2023-02-01T16:34:06;5.99;74.02
70534;SHT31;58088;51.186;17.130;2023-02-01T16:36:44;5.99;74.09
70534;SHT31;58088;51.186;17.130;2023-02-01T16:39:18;5.98;74.10
70534;SHT31;58088;51.186;17.130;2023-02-01T16:41:46;5.96;74.13
70534;SHT31;58088;51.186;17.130;2023-02-01T16:44:13;5.93;74.18
70534;SHT31;58088;51.186;17.130;2023-02-01T16:46:40;5.92;74.20
70534;SHT31;58088;51.186;17.130;2023-02-01T16:49:31;5.93;74.19
70534;SHT31;58088;51.186;17.130;2023-02-01T16:51:58;5.93;74.19
70534;SHT31;58088;51.186;17.130;2023-02-01T16:54:25;5.93;74.17
70534;SHT31;58088;51.186;17.130;2023-02-01T16:56:54;5.93;74.16
70534;SHT31;58088;51.186;17.130;2023-02-01T16:59:20;5.93;74.23
70534;SHT31;58088;51.186;17.130;2023-02-01T17:01:46;5.91;74.27
70534;SHT31;58088;51.186;17.130;2023-02-01T17:04:12;5.88;74.30
70534;SHT31;58088;51.186;17.130;2023-02-01T17:06:40;5.86;74.30
70534;SHT31;58088;51.186;17.130;2023-02-01T17:09:08;5.80;74.39
70534;SHT31;58088;51.186;17.130;2023-02-01T17:11:35;5.78;74.48
70534;SHT31;58088;51.186;17.130;2023-02-01T17:14:13;5.75;74.50
70534;SHT31;58088;51.186;17.130;2023-02-01T17:16:44;5.73;74.54
70534;SHT31;58088;51.186;17.130;2023-02-01T17:19:14;5.70;74.58
70534;SHT31;58088;51.186;17.130;2023-02-01T17:21:48;5.68;74.60
70534;SHT31;58088;51.186;17.130;2023-02-01T17:24:21;5.66;74.71
70534;SHT31;58088;51.186;17.130;2023-02-01T17:26:51;5.64;74.73
70534;SHT31;58088;51.186;17.130;2023-02-01T17:29:18;5.62;74.72
70534;SHT31;58088;51.186;17.130;2023-02-01T17:31:45;5.60;74.72
70534;SHT31;58088;51.186;17.130;2023-02-01T17:34:16;5.58;74.73
70534;SHT31;58088;51.186;17.130;2023-02-01T17:36:44;5.54;74.79
70534;SHT31;58088;51.186;17.130;2023-02-01T17:39:12;5.50;74.88
70534;SHT31;58088;51.186;17.130;2023-02-01T17:42:01;5.48;74.90
70534;SHT31;58088;51.186;17.130;2023-02-01T17:44:29;5.45;74.97
70534;SHT31;58088;51.186;17.130;2023-02-01T17:46:57;5.44;75.00
70534;SHT31;58088;51.186;17.130;2023-02-01T17:49:24;5.41;75.00
70534;SHT31;58088;51.186;17.130;2023-02-01T17:51:55;5.39;74.98
70534;SHT31;58088;51.186;17.130;2023-02-01T17:54:25;5.37;75.00
70534;SHT31;58088;51.186;17.130;2023-02-01T17:56:51;5.36;75.02
70534;SHT31;58088;51.186;17.130;2023-02-01T17:59:18;5.35;75.00
70534;SHT31;58088;51.186;17.130;2023-02-01T18:01:44;5.34;75.00
70534;SHT31;58088;51.186;17.130;2023-02-01T18:04:12;5.36;75.00
70534;SHT31;58088;51.186;17.130;2023-02-01T18:06:45;5.36;75.00
70534;SHT31;58088;51.186;17.130;2023-02-01T18:09:13;5.38;75.00
70534;SHT31;58088;51.186;17.130;2023-02-01T18:11:40;5.39;74.96
70534;SHT31;58088;51.186;17.130;2023-02-01T18:14:09;5.40;74.98
70534;SHT31;58088;51.186;17.130;2023-02-01T18:16:41;5.45;74.93
70534;SHT31;58088;51.186;17.130;2023-02-01T18:19:07;5.46;74.89
70534;SHT31;58088;51.186;17.130;2023-02-01T18:21:35;5.47;74.90
70534;SHT31;58088;51.186;17.130;2023-02-01T18:24:14;5.53;74.92
70534;SHT31;58088;51.186;17.130;2023-02-01T18:26:44;5.55;74.94
70534;SHT31;58088;51.186;17.130;2023-02-01T18:29:11;5.61;74.98
70534;SHT31;58088;51.186;17.130;2023-02-01T18:31:44;5.63;75.01